Time;durP1;ratioP1;P1;durP2;ratioP2;P2;SDS_P1;SDS_P2;PMS_P1;PMS_P2;Temp;Humidity;BMP_temperature;BMP_pressure;BME280_temperature;BME280_humidity;BME280_pressure;Samples;Min_cycle;Max_cycle;Signal;HPM_P1;HPM_P2
2023/11/25 00:02:16;;;;;;;;;;;;;;;-144.99;100.00;67352.69;5079301;28;20290;-85
2023/11/25 00:04:41;;;;;;;;;;;;;;;-144.99;100.00;67352.69;5077198;28;19912;-87
2023/11/25 00:07:06;;;;;;;;;;;;;;;-144.99;100.00;67352.69;5076909;28;19919;-85
2023/11/25 00:09:31;;;;;;;;;;;;;;;-144.99;100.00;67352.69;5077015;28;19946;-86
2023/11/25 00:11:56;;;;;;;;;;;;;;;-144.99;100.00;67352.69;5084322;28;20349;-85
2023/11/25 00:14:22;;;;;;;;;;;;;;;-144.99;100.00;67352.69;5096211;28;19969;-86
2023/11/25 00:16:47;;;;;;;;;;;;;;;-144.99;100.00;67352.69;5094865;28;19912;-87
2023/11/25 00:19:12;;;;;;;;;;;;;;;-144.99;100.00;67352.69;5085439;28;20386;-86
2023/11/25 00:21:37;;;;;;;;;;;;;;;-144.99;100.00;67352.69;5082684;28;19952;-86
2023/11/25 00:24:03;;;;;;;;;;;;;;;-144.99;100.00;67352.69;5090785;28;20011;-87
2023/11/25 00:26:28;;;;;;;;;;;;;;;-144.99;100.00;67352.69;5076321;28;19912;-86
2023/11/25 00:28:53;;;;;;;;;;;;;;;-144.99;100.00;67352.69;5094736;28;19916;-87
2023/11/25 00:31:18;;;;;;;;;;;;;;;-144.99;100.00;67352.69;5113542;28;19912;-86
2023/11/25 00:33:44;;;;;;;;;;;;;;;-144.99;100.00;67352.69;5091390;28;19919;-87
2023/11/25 00:36:10;;;;;;;;;;;;;;;-144.99;100.00;67352.69;5069028;28;20392;-86
2023/11/25 00:38:35;;;;;;;;;;;;;;;-144.99;100.00;67352.69;5079792;28;19920;-84
2023/11/25 00:41:00;;;;;;;;;;;;;;;-144.99;100.00;67352.69;5088651;28;20440;-86
2023/11/25 00:43:26;;;;;;;;;;;;;;;-144.99;100.00;67352.69;5093866;28;20003;-87
2023/11/25 00:45:51;;;;;;;;;;;;;;;-144.99;100.00;67352.69;5102871;28;20298;-85
2023/11/25 00:48:16;;;;;;;;;;;;;;;-144.99;100.00;67352.69;5076032;28;19912;-87
2023/11/25 00:50:41;;;;;;;;;;;;;;;-144.99;100.00;67352.69;5081462;28;19919;-86
2023/11/25 00:53:07;;;;;;;;;;;;;;;-144.99;100.00;67352.69;5087826;28;19912;-87
2023/11/25 00:55:32;;;;;;;;;;;;;;;-144.99;100.00;67352.69;5067854;28;19912;-87
2023/11/25 00:57:58;;;;;;;;;;;;;;;-144.99;100.00;67352.69;5094157;28;20003;-86
2023/11/25 01:00:26;;;;;;;;;;;;;;;-144.99;100.00;67352.69;5105221;28;19994;-87
2023/11/25 01:02:51;;;;;;;;;;;;;;;-144.99;100.00;67352.69;5096236;28;19940;-87
2023/11/25 01:05:16;;;;;;;;;;;;;;;-144.99;100.00;67352.69;5095906;28;19912;-87
2023/11/25 01:07:41;;;;;;;;;;;;;;;-144.99;100.00;67352.69;5067509;28;19912;-86
2023/11/25 01:10:07;;;;;;;;;;;;;;;-144.99;100.00;67352.69;5085678;28;19923;-86
2023/11/25 01:12:34;;;;;;;;;;;;;;;-144.99;100.00;67352.69;5092959;28;20385;-87
2023/11/25 01:15:00;;;;;;;;;;;;;;;-144.99;100.00;67352.69;5075640;28;20347;-87
2023/11/25 01:17:26;;;;;;;;;;;;;;;-144.99;100.00;67352.69;5075545;28;19973;-87
2023/11/25 01:19:52;;;;;;;;;;;;;;;-144.99;100.00;67352.69;5093795;28;19916;-86
2023/11/25 01:22:17;;;;;;;;;;;;;;;-144.99;100.00;67352.69;5093663;28;20389;-86
2023/11/25 01:24:42;;;;;;;;;;;;;;;-144.99;100.00;67352.69;5075748;28;19912;-85
2023/11/25 01:27:08;;;;;;;;;;;;;;;-144.99;100.00;67352.69;5074852;28;19972;-87
2023/11/25 01:29:33;;;;;;;;;;;;;;;-144.99;100.00;67352.69;5085458;28;19923;-86
2023/11/25 01:31:59;;;;;;;;;;;;;;;-144.99;100.00;67352.69;5092555;28;19926;-86
2023/11/25 01:34:24;;;;;;;;;;;;;;;-144.99;100.00;67352.69;5075342;28;19961;-84
2023/11/25 01:36:50;;;;;;;;;;;;;;;-144.99;100.00;67352.69;5081282;28;20374;-87
2023/11/25 01:39:15;;;;;;;;;;;;;;;-144.99;100.00;67352.69;5085590;28;19994;-86
2023/11/25 01:41:41;;;;;;;;;;;;;;;-144.99;100.00;67352.69;5088075;28;19912;-87
2023/11/25 01:44:07;;;;;;;;;;;;;;;-144.99;100.00;67352.69;5104191;28;19911;-87
2023/11/25 01:46:32;;;;;;;;;;;;;;;-144.99;100.00;67352.69;5084752;28;20002;-86
2023/11/25 01:48:57;;;;;;;;;;;;;;;-144.99;100.00;67352.69;5108895;28;19983;-86
2023/11/25 01:51:25;;;;;;;;;;;;;;;-144.99;100.00;67352.69;5102647;28;19912;-86
2023/11/25 01:53:50;;;;;;;;;;;;;;;-144.99;100.00;67352.69;5075273;28;19912;-87
2023/11/25 01:56:16;;;;;;;;;;;;;;;-144.99;100.00;67352.69;5074850;28;19920;-85
2023/11/25 01:58:41;;;;;;;;;;;;;;;-144.99;100.00;67352.69;5074662;28;19916;-86
2023/11/25 02:01:07;;;;;;;;;;;;;;;-144.99;100.00;67352.69;5093146;28;20033;-86
2023/11/25 02:03:33;;;;;;;;;;;;;;;-144.99;100.00;67352.69;5074960;28;20291;-86
2023/11/25 02:05:58;;;;;;;;;;;;;;;-144.99;100.00;67352.69;5092674;28;19912;-87
2023/11/25 02:08:23;;;;;;;;;;;;;;;-144.99;100.00;67352.69;5092589;28;19916;-86
2023/11/25 02:10:50;;;;;;;;;;;;;;;-144.99;100.00;67352.69;5092861;28;20344;-86
2023/11/25 02:13:15;;;;;;;;;;;;;;;-144.99;100.00;67352.69;5074663;28;19923;-85
2023/11/25 02:15:41;;;;;;;;;;;;;;;-144.99;100.00;67352.69;5092714;28;20003;-85
2023/11/25 02:18:07;;;;;;;;;;;;;;;-144.99;100.00;67352.69;5092439;28;19912;-86
2023/11/25 02:20:36;;;;;;;;;;;;;;;-144.99;100.00;67352.69;5101031;28;19912;-87
2023/11/25 02:23:01;;;;;;;;;;;;;;;-144.99;100.00;67352.69;5083335;28;19951;-84
2023/11/25 02:25:27;;;;;;;;;;;;;;;-144.99;100.00;67352.69;5095662;28;20326;-85
2023/11/25 02:27:53;;;;;;;;;;;;;;;-144.99;100.00;67352.69;5104379;28;19918;-85
2023/11/25 02:30:19;;;;;;;;;;;;;;;-144.99;100.00;67352.69;5092664;28;19915;-86
2023/11/25 02:32:44;;;;;;;;;;;;;;;-144.99;100.00;67352.69;5074536;28;19919;-86
2023/11/25 02:35:11;;;;;;;;;;;;;;;-144.99;100.00;67352.69;5092328;28;19912;-86
2023/11/25 02:37:36;;;;;;;;;;;;;;;-144.99;100.00;67352.69;5087946;28;19912;-85
2023/11/25 02:40:02;;;;;;;;;;;;;;;-144.99;100.00;67352.69;5088645;28;19919;-87
2023/11/25 02:42:28;;;;;;;;;;;;;;;-144.99;100.00;67352.69;5074585;28;19912;-86
2023/11/25 02:44:53;;;;;;;;;;;;;;;-144.99;100.00;67352.69;5074608;28;19912;-87
2023/11/25 02:47:18;;;;;;;;;;;;;;;-144.99;100.00;67352.69;5092216;28;19995;-87
2023/11/25 02:49:43;;;;;;;;;;;;;;;-144.99;100.00;67352.69;5092420;28;19939;-86
2023/11/25 02:52:09;;;;;;;;;;;;;;;-144.99;100.00;67352.69;5092377;28;20378;-87
2023/11/25 02:54:34;;;;;;;;;;;;;;;-144.99;100.00;67352.69;5092528;28;19999;-86
2023/11/25 02:56:59;;;;;;;;;;;;;;;-144.99;100.00;67352.69;5092153;28;19912;-84
2023/11/25 02:59:24;;;;;;;;;;;;;;;-144.99;100.00;67352.69;5092208;28;20564;-86
2023/11/25 03:01:52;;;;;;;;;;;;;;;-144.99;100.00;67352.69;5092223;28;20296;-87
2023/11/25 03:04:23;;;;;;;;;;;;;;;-144.99;100.00;67352.69;5073939;28;20314;-86
2023/11/25 03:06:50;;;;;;;;;;;;;;;-144.99;100.00;67352.69;5086069;28;20011;-87
2023/11/25 03:09:17;;;;;;;;;;;;;;;-144.99;100.00;67352.69;5072148;28;19916;-86
2023/11/25 03:11:42;;;;;;;;;;;;;;;-144.99;100.00;67352.69;5074074;28;19927;-86
2023/11/25 03:14:07;;;;;;;;;;;;;;;-144.99;100.00;67352.69;5065521;28;20021;-85
2023/11/25 03:16:33;;;;;;;;;;;;;;;-144.99;100.00;67352.69;5118665;22;19930;-88
2023/11/25 03:18:58;;;;;;;;;;;;;;;-144.99;100.00;67352.69;5105593;28;19916;-89
2023/11/25 03:21:24;;;;;;;;;;;;;;;-144.99;100.00;67352.69;5084934;28;19912;-88
2023/11/25 03:23:50;;;;;;;;;;;;;;;-144.99;100.00;67352.69;5084500;28;20382;-87
2023/11/25 03:26:15;;;;;;;;;;;;;;;-144.99;100.00;67352.69;5076397;28;19919;-87
2023/11/25 03:28:41;;;;;;;;;;;;;;;-144.99;100.00;67352.69;5076456;28;20370;-88
2023/11/25 03:31:07;;;;;;;;;;;;;;;-144.99;100.00;67352.69;5076545;28;19912;-88
2023/11/25 03:33:32;;;;;;;;;;;;;;;-144.99;100.00;67352.69;5067712;28;20412;-88
2023/11/25 03:35:58;;;;;;;;;;;;;;;-144.99;100.00;67352.69;5068245;28;19960;-88
2023/11/25 03:38:23;;;;;;;;;;;;;;;-144.99;100.00;67352.69;5075923;28;20350;-88
2023/11/25 03:40:50;;;;;;;;;;;;;;;-144.99;100.00;67352.69;5094295;28;19916;-88
2023/11/25 03:43:15;;;;;;;;;;;;;;;-144.99;100.00;67352.69;5076065;28;19913;-88
2023/11/25 03:45:40;;;;;;;;;;;;;;;-144.99;100.00;67352.69;5076288;28;20565;-88
2023/11/25 03:48:05;;;;;;;;;;;;;;;-144.99;100.00;67352.69;5075596;28;19912;-88
2023/11/25 03:50:31;;;;;;;;;;;;;;;-144.99;100.00;67352.69;5076055;28;19916;-87
2023/11/25 03:52:56;;;;;;;;;;;;;;;-144.99;100.00;67352.69;5075792;28;19912;-88
2023/11/25 03:55:21;;;;;;;;;;;;;;;-144.99;100.00;67352.69;5076753;28;19973;-85
2023/11/25 03:57:46;;;;;;;;;;;;;;;-144.99;100.00;67352.69;5098278;28;19965;-88
2023/11/25 04:00:14;;;;;;;;;;;;;;;-144.99;100.00;67352.69;5079783;28;19981;-88
2023/11/25 04:02:43;;;;;;;;;;;;;;;-144.99;100.00;67352.69;5080293;28;19969;-88
2023/11/25 04:05:08;;;;;;;;;;;;;;;-144.99;100.00;67352.69;5079756;28;20431;-89
2023/11/25 04:07:33;;;;;;;;;;;;;;;-144.99;100.00;67352.69;5098124;28;19920;-88
2023/11/25 04:10:01;;;;;;;;;;;;;;;-144.99;100.00;67352.69;5090651;28;19920;-88
2023/11/25 04:12:29;;;;;;;;;;;;;;;-144.99;100.00;67352.69;5080125;28;20383;-88
2023/11/25 04:14:54;;;;;;;;;;;;;;;-144.99;100.00;67352.69;5072299;28;19912;-88
2023/11/25 04:17:19;;;;;;;;;;;;;;;-144.99;100.00;67352.69;5080639;28;19919;-88
2023/11/25 04:19:45;;;;;;;;;;;;;;;-144.99;100.00;67352.69;5081791;28;19979;-89
2023/11/25 04:22:11;;;;;;;;;;;;;;;-144.99;100.00;67352.69;5099620;28;20335;-89
2023/11/25 04:24:36;;;;;;;;;;;;;;;-144.99;100.00;67352.69;5099589;28;19912;-88
2023/11/25 04:27:01;;;;;;;;;;;;;;;-144.99;100.00;67352.69;5100799;28;19920;-89
2023/11/25 04:29:27;;;;;;;;;;;;;;;-144.99;100.00;67352.69;5082401;28;20379;-89
2023/11/25 04:31:55;;;;;;;;;;;;;;;-144.99;100.00;67352.69;5080994;28;19912;-88
2023/11/25 04:34:23;;;;;;;;;;;;;;;-144.99;100.00;67352.69;5099256;28;19982;-88
2023/11/25 04:36:49;;;;;;;;;;;;;;;-144.99;100.00;67352.69;5081221;28;20006;-88
2023/11/25 04:39:15;;;;;;;;;;;;;;;-144.99;100.00;67352.69;5081812;28;19912;-88
2023/11/25 04:41:45;;;;;;;;;;;;;;;-144.99;100.00;67352.69;5080142;28;19924;-89
2023/11/25 04:44:14;;;;;;;;;;;;;;;-144.99;100.00;67352.69;5080319;28;19935;-89
2023/11/25 04:46:40;;;;;;;;;;;;;;;-144.99;100.00;67352.69;5098570;28;19981;-89
2023/11/25 04:49:05;;;;;;;;;;;;;;;-144.99;100.00;67352.69;5074264;28;19916;-89
2023/11/25 04:51:34;;;;;;;;;;;;;;;-144.99;100.00;67352.69;5098596;28;19938;-89
2023/11/25 04:53:59;;;;;;;;;;;;;;;-144.99;100.00;67352.69;5080331;28;19915;-89
2023/11/25 04:56:25;;;;;;;;;;;;;;;-144.99;100.00;67352.69;5097683;28;20461;-88
2023/11/25 04:58:50;;;;;;;;;;;;;;;-144.99;100.00;67352.69;5072558;28;19916;-89
2023/11/25 05:01:17;;;;;;;;;;;;;;;-144.99;100.00;67352.69;5087115;28;19935;-89
2023/11/25 05:03:45;;;;;;;;;;;;;;;-144.99;100.00;67352.69;5078719;28;20313;-89
2023/11/25 05:06:10;;;;;;;;;;;;;;;-144.99;100.00;67352.69;5077917;28;19912;-89
2023/11/25 05:08:36;;;;;;;;;;;;;;;-144.99;100.00;67352.69;5077955;28;19912;-89
2023/11/25 05:11:01;;;;;;;;;;;;;;;-144.99;100.00;67352.69;5078493;28;19961;-89
2023/11/25 05:13:26;;;;;;;;;;;;;;;-144.99;100.00;67352.69;5095753;28;19951;-88
2023/11/25 05:15:55;;;;;;;;;;;;;;;-144.99;100.00;67352.69;5071642;28;19970;-89
2023/11/25 05:18:21;;;;;;;;;;;;;;;-144.99;100.00;67352.69;5074085;28;19966;-89
2023/11/25 05:20:46;;;;;;;;;;;;;;;-144.99;100.00;67352.69;5071712;28;19946;-89
2023/11/25 05:23:14;;;;;;;;;;;;;;;-144.99;100.00;67352.69;5096096;28;19912;-89
2023/11/25 05:25:40;;;;;;;;;;;;;;;-144.99;100.00;67352.69;5077930;28;20394;-89
2023/11/25 05:28:05;;;;;;;;;;;;;;;-144.99;100.00;67352.69;5095836;28;20019;-89
2023/11/25 05:30:30;;;;;;;;;;;;;;;-144.99;100.00;67352.69;5087186;28;19923;-89
2023/11/25 05:32:56;;;;;;;;;;;;;;;-144.99;100.00;67352.69;5077432;28;19919;-89
2023/11/25 05:35:21;;;;;;;;;;;;;;;-144.99;100.00;67352.69;5077714;28;19919;-88
2023/11/25 05:37:48;;;;;;;;;;;;;;;-144.99;100.00;67352.69;5077347;28;19919;-89
2023/11/25 05:40:14;;;;;;;;;;;;;;;-144.99;100.00;67352.69;5077277;28;20394;-88
2023/11/25 05:42:42;;;;;;;;;;;;;;;-144.99;100.00;67352.69;5076627;28;19946;-89
2023/11/25 05:45:08;;;;;;;;;;;;;;;-144.99;100.00;67352.69;5076495;28;19922;-89
2023/11/25 05:47:37;;;;;;;;;;;;;;;-144.99;100.00;67352.69;5094292;28;19916;-89
2023/11/25 05:50:03;;;;;;;;;;;;;;;-144.99;100.00;67352.69;5076414;28;19944;-89
2023/11/25 05:52:28;;;;;;;;;;;;;;;-144.99;100.00;67352.69;5076179;28;20393;-88
2023/11/25 05:54:57;;;;;;;;;;;;;;;-144.99;100.00;67352.69;5076256;28;19912;-89
2023/11/25 05:57:22;;;;;;;;;;;;;;;-144.99;100.00;67352.69;5094235;28;19912;-88
2023/11/25 05:59:47;;;;;;;;;;;;;;;-144.99;100.00;67352.69;5070502;28;20363;-89
2023/11/25 06:02:13;;;;;;;;;;;;;;;-144.99;100.00;67352.69;5091875;28;20430;-89
2023/11/25 06:04:38;;;;;;;;;;;;;;;-144.99;100.00;67352.69;5094104;28;20394;-87
2023/11/25 06:07:03;;;;;;;;;;;;;;;-144.99;100.00;67352.69;5094213;28;20002;-89
2023/11/25 06:09:31;;;;;;;;;;;;;;;-144.99;100.00;67352.69;5085315;28;20034;-88
2023/11/25 06:11:57;;;;;;;;;;;;;;;-144.99;100.00;67352.69;5094299;28;19922;-88
2023/11/25 06:14:22;;;;;;;;;;;;;;;-144.99;100.00;67352.69;5075670;28;19916;-88
2023/11/25 06:16:53;;;;;;;;;;;;;;;-144.99;100.00;67352.69;5093825;28;19916;-88
2023/11/25 06:19:21;;;;;;;;;;;;;;;-144.99;100.00;67352.69;5067438;28;19916;-89
2023/11/25 06:21:47;;;;;;;;;;;;;;;-144.99;100.00;67352.69;5075894;28;20409;-89
2023/11/25 06:24:16;;;;;;;;;;;;;;;-144.99;100.00;67352.69;5075716;28;19912;-88
2023/11/25 06:26:41;;;;;;;;;;;;;;;-144.99;100.00;67352.69;5075663;28;19966;-88
2023/11/25 06:29:07;;;;;;;;;;;;;;;-144.99;100.00;67352.69;5075620;28;19920;-88
2023/11/25 06:31:35;;;;;;;;;;;;;;;-144.99;100.00;67352.69;5076264;28;19912;-88
2023/11/25 06:34:24;;;;;;;;;;;;;;;-144.99;100.00;67352.69;5076045;28;19912;-88
2023/11/25 06:36:49;;;;;;;;;;;;;;;-144.99;100.00;67352.69;5065232;28;20226;-88
2023/11/25 06:39:18;;;;;;;;;;;;;;;-144.99;100.00;67352.69;5075908;28;19912;-88
2023/11/25 06:41:48;;;;;;;;;;;;;;;-144.99;100.00;67352.69;5076050;28;19912;-90
2023/11/25 06:44:14;;;;;;;;;;;;;;;-144.99;100.00;67352.69;5076068;28;19919;-89
2023/11/25 06:46:42;;;;;;;;;;;;;;;-144.99;100.00;67352.69;5093808;28;19916;-89
2023/11/25 06:49:08;;;;;;;;;;;;;;;-144.99;100.00;67352.69;5075529;28;20339;-88
2023/11/25 06:51:33;;;;;;;;;;;;;;;-144.99;100.00;67352.69;5075627;28;19916;-89
2023/11/25 06:53:59;;;;;;;;;;;;;;;-144.99;100.00;67352.69;5093891;28;19943;-89
2023/11/25 06:56:25;;;;;;;;;;;;;;;-144.99;100.00;67352.69;5092490;28;19912;-88
2023/11/25 06:58:53;;;;;;;;;;;;;;;-144.99;100.00;67352.69;5070531;28;19965;-89
2023/11/25 07:01:27;;;;;;;;;;;;;;;-144.99;100.00;67352.69;5066885;28;19913;-87
2023/11/25 07:03:52;;;;;;;;;;;;;;;-144.99;100.00;67352.69;5094843;28;20405;-89
2023/11/25 07:06:18;;;;;;;;;;;;;;;-144.99;100.00;67352.69;5067169;28;19916;-89
2023/11/25 07:08:44;;;;;;;;;;;;;;;-144.99;100.00;67352.69;5057548;28;19930;-89
2023/11/25 07:11:10;;;;;;;;;;;;;;;-144.99;100.00;67352.69;5084693;28;20000;-89
2023/11/25 07:13:36;;;;;;;;;;;;;;;-144.99;100.00;67352.69;5068986;28;19920;-89
2023/11/25 07:16:04;;;;;;;;;;;;;;;-144.99;100.00;67352.69;5060792;28;19917;-89
2023/11/25 07:18:33;;;;;;;;;;;;;;;-144.99;100.00;67352.69;5084954;28;19920;-89
2023/11/25 07:20:59;;;;;;;;;;;;;;;-144.99;100.00;67352.69;5093738;28;20382;-87
2023/11/25 07:23:28;;;;;;;;;;;;;;;-144.99;100.00;67352.69;5070580;28;19912;-89
2023/11/25 07:25:56;;;;;;;;;;;;;;;-144.99;100.00;67352.69;5065200;28;20378;-88
2023/11/25 07:28:24;;;;;;;;;;;;;;;-144.99;100.00;67352.69;5070540;28;20397;-88
2023/11/25 07:30:49;;;;;;;;;;;;;;;-144.99;100.00;67352.69;5089039;28;19924;-88
2023/11/25 07:33:15;;;;;;;;;;;;;;;-144.99;100.00;67352.69;5090797;28;20297;-89
2023/11/25 07:35:40;;;;;;;;;;;;;;;-144.99;100.00;67352.69;5097424;28;20705;-88
2023/11/25 07:38:05;;;;;;;;;;;;;;;-144.99;100.00;67352.69;5079675;28;20373;-88
2023/11/25 07:40:31;;;;;;;;;;;;;;;-144.99;100.00;67352.69;5097751;28;19980;-89
2023/11/25 07:42:56;;;;;;;;;;;;;;;-144.99;100.00;67352.69;5079966;28;19912;-89
2023/11/25 07:45:21;;;;;;;;;;;;;;;-144.99;100.00;67352.69;5078947;28;20347;-89
2023/11/25 07:47:47;;;;;;;;;;;;;;;-144.99;100.00;67352.69;5092760;28;19956;-89
2023/11/25 07:50:16;;;;;;;;;;;;;;;-144.99;100.00;67352.69;5077886;28;20344;-89
2023/11/25 07:52:41;;;;;;;;;;;;;;;-144.99;100.00;67352.69;5072212;28;19964;-88
2023/11/25 07:55:07;;;;;;;;;;;;;;;-144.99;100.00;67352.69;5081099;28;19916;-89
2023/11/25 07:57:32;;;;;;;;;;;;;;;-144.99;100.00;67352.69;5080900;28;19919;-88
2023/11/25 07:59:58;;;;;;;;;;;;;;;-144.99;100.00;67352.69;5082197;28;20417;-89
2023/11/25 08:02:26;;;;;;;;;;;;;;;-144.99;100.00;67352.69;5103302;28;19912;-89
2023/11/25 08:04:51;;;;;;;;;;;;;;;-144.99;100.00;67352.69;5116636;28;19938;-90
2023/11/25 08:07:17;;;;;;;;;;;;;;;-144.99;100.00;67352.69;5092158;28;19918;-89
2023/11/25 08:09:42;;;;;;;;;;;;;;;-144.99;100.00;67352.69;5099916;28;19922;-91
2023/11/25 08:12:08;;;;;;;;;;;;;;;-144.99;100.00;67352.69;5092761;28;19900;-91
2023/11/25 08:14:35;;;;;;;;;;;;;;;-144.99;100.00;67352.69;5115000;28;19956;-89
2023/11/25 08:17:02;;;;;;;;;;;;;;;-144.99;100.00;67352.69;5084253;28;19956;-89
2023/11/25 08:19:27;;;;;;;;;;;;;;;-144.99;100.00;67352.69;5100309;28;19919;-89
2023/11/25 08:21:53;;;;;;;;;;;;;;;-144.99;100.00;67352.69;5078749;28;19997;-89
2023/11/25 08:24:18;;;;;;;;;;;;;;;-144.99;100.00;67352.69;5074981;28;19923;-90
2023/11/25 08:26:43;;;;;;;;;;;;;;;-144.99;100.00;67352.69;5081586;28;20374;-89
2023/11/25 08:29:11;;;;;;;;;;;;;;;-144.99;100.00;67352.69;5080892;28;19932;-91
2023/11/25 08:31:36;;;;;;;;;;;;;;;-144.99;100.00;67352.69;5077868;28;19924;-89
2023/11/25 08:34:03;;;;;;;;;;;;;;;-144.99;100.00;67352.69;5083708;28;19912;-89
2023/11/25 08:36:29;;;;;;;;;;;;;;;-144.99;100.00;67352.69;5073198;28;19920;-89
2023/11/25 08:39:08;;;;;;;;;;;;;;;-144.99;100.00;67352.69;5078450;28;19919;-89
2023/11/25 08:41:34;;;;;;;;;;;;;;;-144.99;100.00;67352.69;5070190;28;19919;-90
2023/11/25 08:44:02;;;;;;;;;;;;;;;-144.99;100.00;67352.69;5072851;28;19921;-89
2023/11/25 08:46:27;;;;;;;;;;;;;;;-144.99;100.00;67352.69;5072589;28;19912;-89
2023/11/25 08:48:53;;;;;;;;;;;;;;;-144.99;100.00;67352.69;5093924;28;19923;-89
2023/11/25 08:51:18;;;;;;;;;;;;;;;-144.99;100.00;67352.69;5093364;28;19920;-89
2023/11/25 08:53:44;;;;;;;;;;;;;;;-144.99;100.00;67352.69;5077782;28;19919;-89
2023/11/25 08:56:10;;;;;;;;;;;;;;;-144.99;100.00;67352.69;5092235;28;19920;-88
2023/11/25 08:58:36;;;;;;;;;;;;;;;-144.99;100.00;67352.69;5077238;28;19912;-88
2023/11/25 09:01:01;;;;;;;;;;;;;;;-144.99;100.00;67352.69;5076929;28;19912;-88
2023/11/25 09:03:27;;;;;;;;;;;;;;;-144.99;100.00;67352.69;5076579;28;20321;-89
2023/11/25 09:05:53;;;;;;;;;;;;;;;-144.99;100.00;67352.69;5076907;28;19962;-88
2023/11/25 09:08:18;;;;;;;;;;;;;;;-144.99;100.00;67352.69;5075606;28;20378;-88
2023/11/25 09:10:43;;;;;;;;;;;;;;;-144.99;100.00;67352.69;5077042;28;20015;-88
2023/11/25 09:13:08;;;;;;;;;;;;;;;-144.99;100.00;67352.69;5077105;28;19912;-87
2023/11/25 09:15:34;;;;;;;;;;;;;;;-144.99;100.00;67352.69;5115960;22;19963;-80
2023/11/25 09:18:00;;;;;;;;;;;;;;;-144.99;100.00;67352.69;5072854;28;20369;-80
2023/11/25 09:20:26;;;;;;;;;;;;;;;-144.99;100.00;67352.69;5062603;28;19974;-80
2023/11/25 09:22:52;;;;;;;;;;;;;;;-144.99;100.00;67352.69;5054396;28;19912;-80
2023/11/25 09:25:17;;;;;;;;;;;;;;;-144.99;100.00;67352.69;5080932;28;19919;-79
2023/11/25 09:27:44;;;;;;;;;;;;;;;-144.99;100.00;67352.69;5077118;28;19912;-80
2023/11/25 09:30:11;;;;;;;;;;;;;;;-144.99;100.00;67352.69;5054494;28;20007;-80
2023/11/25 09:32:37;;;;;;;;;;;;;;;-144.99;100.00;67352.69;5092286;28;19934;-80
2023/11/25 09:35:02;;;;;;;;;;;;;;;-144.99;100.00;67352.69;5074376;28;20327;-80
2023/11/25 09:37:27;;;;;;;;;;;;;;;-144.99;100.00;67352.69;5069081;28;20032;-80
2023/11/25 09:39:52;;;;;;;;;;;;;;;-144.99;100.00;67352.69;5086885;23;19973;-82
2023/11/25 09:42:18;;;;;;;;;;;;;;;-144.99;100.00;67352.69;5110061;28;19923;-82
2023/11/25 09:44:43;;;;;;;;;;;;;;;-144.99;100.00;67352.69;5113538;28;19911;-82
2023/11/25 09:47:09;;;;;;;;;;;;;;;-144.99;100.00;67352.69;5113173;28;20316;-83
2023/11/25 09:49:34;;;;;;;;;;;;;;;-144.99;100.00;67352.69;5113474;28;20382;-82
2023/11/25 09:52:03;;;;;;;;;;;;;;;-144.99;100.00;67352.69;5113255;28;19919;-82
2023/11/25 09:54:28;;;;;;;;;;;;;;;-144.99;100.00;67352.69;5094574;28;19938;-82
2023/11/25 09:56:54;;;;;;;;;;;;;;;-144.99;100.00;67352.69;5113151;28;20393;-82
2023/11/25 09:59:19;;;;;;;;;;;;;;;-144.99;100.00;67352.69;5094995;28;20085;-83
2023/11/25 10:01:45;;;;;;;;;;;;;;;-144.99;100.00;67352.69;5113310;28;19912;-82
2023/11/25 10:04:14;;;;;;;;;;;;;;;-144.99;100.00;67352.69;5113090;28;19912;-82
2023/11/25 10:06:39;;;;;;;;;;;;;;;-144.99;100.00;67352.69;5094941;28;20167;-82
2023/11/25 10:09:09;;;;;;;;;;;;;;;-144.99;100.00;67352.69;5094989;28;20369;-83
2023/11/25 10:11:35;;;;;;;;;;;;;;;-144.99;100.00;67352.69;5113082;28;20362;-82
2023/11/25 10:14:02;;;;;;;;;;;;;;;-144.99;100.00;67352.69;5094713;28;19912;-82
2023/11/25 10:16:28;;;;;;;;;;;;;;;-144.99;100.00;67352.69;5112846;28;19919;-82
2023/11/25 10:18:53;;;;;;;;;;;;;;;-144.99;100.00;67352.69;5113051;28;19912;-82
2023/11/25 10:21:19;;;;;;;;;;;;;;;-144.99;100.00;67352.69;5094677;28;20377;-83
2023/11/25 10:23:44;;;;;;;;;;;;;;;-144.99;100.00;67352.69;5094230;28;20382;-83
2023/11/25 10:26:09;;;;;;;;;;;;;;;-144.99;100.00;67352.69;5112568;28;20282;-82
2023/11/25 10:28:35;;;;;;;;;;;;;;;-144.99;100.00;67352.69;5112653;28;19957;-82
2023/11/25 10:31:02;;;;;;;;;;;;;;;-144.99;100.00;67352.69;5094617;28;20382;-83
2023/11/25 10:33:27;;;;;;;;;;;;;;;-144.99;100.00;67352.69;5112714;28;20006;-83
2023/11/25 10:35:53;;;;;;;;;;;;;;;-144.99;100.00;67352.69;5094553;28;19943;-83
2023/11/25 10:38:21;;;;;;;;;;;;;;;-144.99;100.00;67352.69;5085538;28;19928;-83
2023/11/25 10:40:48;;;;;;;;;;;;;;;-144.99;100.00;67352.69;5100924;28;19966;-83
2023/11/25 10:43:14;;;;;;;;;;;;;;;-144.99;100.00;67352.69;5101229;28;20431;-87
2023/11/25 10:45:39;;;;;;;;;;;;;;;-144.99;100.00;67352.69;5110227;28;20006;-86
2023/11/25 10:48:07;;;;;;;;;;;;;;;-144.99;100.00;67352.69;5093133;28;19994;-86
2023/11/25 10:50:33;;;;;;;;;;;;;;;-144.99;100.00;67352.69;5085829;28;19923;-85
2023/11/25 10:52:58;;;;;;;;;;;;;;;-144.99;100.00;67352.69;5110597;28;19912;-86
2023/11/25 10:55:26;;;;;;;;;;;;;;;-144.99;100.00;67352.69;5090719;28;19916;-85
2023/11/25 10:57:51;;;;;;;;;;;;;;;-144.99;100.00;67352.69;5101810;28;20017;-83
2023/11/25 11:00:17;;;;;;;;;;;;;;;-144.99;100.00;67352.69;5095226;28;19930;-83
2023/11/25 11:02:44;;;;;;;;;;;;;;;-144.99;100.00;67352.69;5113854;28;19956;-83
2023/11/25 11:05:10;;;;;;;;;;;;;;;-144.99;100.00;67352.69;5098707;28;19948;-84
2023/11/25 11:07:46;;;;;;;;;;;;;;;-144.99;100.00;67352.69;5101088;28;19923;-84
2023/11/25 11:10:14;;;;;;;;;;;;;;;-144.99;100.00;67352.69;5084041;28;19955;-83
2023/11/25 11:12:52;;;;;;;;;;;;;;;-144.99;100.00;67352.69;5091634;28;19998;-83
2023/11/25 11:15:18;;;;;;;;;;;;;;;-144.99;100.00;67352.69;5089708;28;20110;-83
2023/11/25 11:18:19;;;;;;;;;;;;;;;-144.99;100.00;67352.69;5113661;28;20437;-83
2023/11/25 11:20:49;;;;;;;;;;;;;;;-144.99;100.00;67352.69;5006990;28;20021;-84
2023/11/25 11:23:16;;;;;;;;;;;;;;;-144.99;100.00;67352.69;5071864;28;19912;-84
2023/11/25 11:25:48;;;;;;;;;;;;;;;-144.99;100.00;67352.69;5095791;28;19969;-84
2023/11/25 11:28:22;;;;;;;;;;;;;;;-144.99;100.00;67352.69;5098979;28;19934;-84
2023/11/25 11:31:06;;;;;;;;;;;;;;;-144.99;100.00;67352.69;5096320;28;19939;-83
2023/11/25 11:33:31;;;;;;;;;;;;;;;-144.99;100.00;67352.69;5090801;28;19963;-83
2023/11/25 11:35:56;;;;;;;;;;;;;;;-144.99;100.00;67352.69;5094062;28;19919;-84
2023/11/25 11:38:26;;;;;;;;;;;;;;;-144.99;100.00;67352.69;5099049;28;19912;-85
2023/11/25 11:40:53;;;;;;;;;;;;;;;-144.99;100.00;67352.69;5116726;28;19958;-84
2023/11/25 11:43:19;;;;;;;;;;;;;;;-144.99;100.00;67352.69;5117083;28;19922;-85
2023/11/25 11:45:44;;;;;;;;;;;;;;;-144.99;100.00;67352.69;5117059;28;20054;-84
2023/11/25 11:48:13;;;;;;;;;;;;;;;-144.99;100.00;67352.69;5116510;28;20308;-84
2023/11/25 11:50:42;;;;;;;;;;;;;;;-144.99;100.00;67352.69;5113586;28;19923;-85
2023/11/25 11:53:12;;;;;;;;;;;;;;;-144.99;100.00;67352.69;5088549;28;19934;-84
2023/11/25 11:55:53;;;;;;;;;;;;;;;-144.99;100.00;67352.69;5117134;28;19996;-84
2023/11/25 11:58:44;;;;;;;;;;;;;;;-144.99;100.00;67352.69;5098117;28;19922;-85
2023/11/25 12:01:09;;;;;;;;;;;;;;;-144.99;100.00;67352.69;5115730;28;20293;-85
2023/11/25 12:03:36;;;;;;;;;;;;;;;-144.99;100.00;67352.69;5099006;28;19919;-84
2023/11/25 12:06:02;;;;;;;;;;;;;;;-144.99;100.00;67352.69;5117094;28;19912;-87
2023/11/25 12:08:30;;;;;;;;;;;;;;;-144.99;100.00;67352.69;5098661;28;19916;-85
2023/11/25 12:10:56;;;;;;;;;;;;;;;-144.99;100.00;67352.69;5098739;28;19920;-85
2023/11/25 12:13:24;;;;;;;;;;;;;;;-144.99;100.00;67352.69;5095916;28;19966;-84
2023/11/25 12:15:51;;;;;;;;;;;;;;;-144.99;100.00;67352.69;5090917;28;19982;-85